sensor_id;sensor_type;location;lat;lon;timestamp;temperature;humidity
546;DHT22;259;53.304;9.816;2022-12-07T00:01:34;12.80;67.40
546;DHT22;259;53.304;9.816;2022-12-07T00:04:02;12.80;67.30
546;DHT22;259;53.304;9.816;2022-12-07T00:06:36;12.80;67.50
546;DHT22;259;53.304;9.816;2022-12-07T00:09:03;12.80;67.50
546;DHT22;259;53.304;9.816;2022-12-07T00:11:29;12.80;67.60
546;DHT22;259;53.304;9.816;2022-12-07T00:13:57;12.70;67.40
546;DHT22;259;53.304;9.816;2022-12-07T00:16:25;12.70;67.60
546;DHT22;259;53.304;9.816;2022-12-07T00:18:51;12.70;67.60
546;DHT22;259;53.304;9.816;2022-12-07T00:21:20;12.70;67.60
546;DHT22;259;53.304;9.816;2022-12-07T00:23:47;12.70;67.80
546;DHT22;259;53.304;9.816;2022-12-07T00:26:21;12.70;67.80
546;DHT22;259;53.304;9.816;2022-12-07T00:28:48;12.70;67.80
546;DHT22;259;53.304;9.816;2022-12-07T00:31:16;12.60;67.80
546;DHT22;259;53.304;9.816;2022-12-07T00:33:42;12.60;67.80
546;DHT22;259;53.304;9.816;2022-12-07T00:36:11;12.60;67.70
546;DHT22;259;53.304;9.816;2022-12-07T00:38:37;12.60;67.90
546;DHT22;259;53.304;9.816;2022-12-07T00:41:16;12.60;67.90
546;DHT22;259;53.304;9.816;2022-12-07T00:43:43;12.60;67.80
546;DHT22;259;53.304;9.816;2022-12-07T00:46:10;12.60;67.90
546;DHT22;259;53.304;9.816;2022-12-07T00:48:35;12.50;67.90
546;DHT22;259;53.304;9.816;2022-12-07T00:51:01;12.50;68.00
546;DHT22;259;53.304;9.816;2022-12-07T00:53:27;12.50;68.00
546;DHT22;259;53.304;9.816;2022-12-07T00:55:53;12.50;67.90
546;DHT22;259;53.304;9.816;2022-12-07T00:58:19;12.50;68.00
546;DHT22;259;53.304;9.816;2022-12-07T01:00:45;12.50;67.90
546;DHT22;259;53.304;9.816;2022-12-07T01:03:12;12.40;68.10
546;DHT22;259;53.304;9.816;2022-12-07T01:05:39;12.40;68.00
546;DHT22;259;53.304;9.816;2022-12-07T01:08:05;12.40;68.00
546;DHT22;259;53.304;9.816;2022-12-07T01:10:31;12.40;68.00
546;DHT22;259;53.304;9.816;2022-12-07T01:12:57;12.40;68.10
546;DHT22;259;53.304;9.816;2022-12-07T01:15:24;12.40;68.00
546;DHT22;259;53.304;9.816;2022-12-07T01:17:49;12.40;68.60
546;DHT22;259;53.304;9.816;2022-12-07T01:20:15;12.40;68.30
546;DHT22;259;53.304;9.816;2022-12-07T01:22:42;12.40;68.10
546;DHT22;259;53.304;9.816;2022-12-07T01:25:09;12.30;67.90
546;DHT22;259;53.304;9.816;2022-12-07T01:27:35;12.30;68.10
546;DHT22;259;53.304;9.816;2022-12-07T01:30:01;12.30;68.20
546;DHT22;259;53.304;9.816;2022-12-07T01:32:27;12.30;68.70
546;DHT22;259;53.304;9.816;2022-12-07T01:34:53;12.30;68.00
546;DHT22;259;53.304;9.816;2022-12-07T01:37:18;12.20;68.00
546;DHT22;259;53.304;9.816;2022-12-07T01:39:44;12.30;68.10
546;DHT22;259;53.304;9.816;2022-12-07T01:42:10;12.20;68.10
546;DHT22;259;53.304;9.816;2022-12-07T01:47:57;12.20;68.10
546;DHT22;259;53.304;9.816;2022-12-07T01:50:26;12.20;68.90
546;DHT22;259;53.304;9.816;2022-12-07T01:52:54;12.20;68.20
546;DHT22;259;53.304;9.816;2022-12-07T01:55:20;12.20;68.20
546;DHT22;259;53.304;9.816;2022-12-07T01:57:49;12.20;68.40
546;DHT22;259;53.304;9.816;2022-12-07T02:00:16;12.20;68.40
546;DHT22;259;53.304;9.816;2022-12-07T02:03:08;12.20;68.30
546;DHT22;259;53.304;9.816;2022-12-07T02:05:35;12.10;68.30
546;DHT22;259;53.304;9.816;2022-12-07T02:08:03;12.10;68.40
546;DHT22;259;53.304;9.816;2022-12-07T02:10:30;12.10;68.60
546;DHT22;259;53.304;9.816;2022-12-07T02:13:05;12.10;68.40
546;DHT22;259;53.304;9.816;2022-12-07T02:16:00;12.10;68.60
546;DHT22;259;53.304;9.816;2022-12-07T02:18:48;12.10;68.50
546;DHT22;259;53.304;9.816;2022-12-07T02:21:39;12.10;68.60
546;DHT22;259;53.304;9.816;2022-12-07T02:24:25;12.10;68.30
546;DHT22;259;53.304;9.816;2022-12-07T02:30:35;12.00;68.60
546;DHT22;259;53.304;9.816;2022-12-07T02:33:07;12.00;68.60
546;DHT22;259;53.304;9.816;2022-12-07T02:36:02;12.00;68.70
546;DHT22;259;53.304;9.816;2022-12-07T02:38:45;12.00;68.70
546;DHT22;259;53.304;9.816;2022-12-07T02:41:24;12.00;68.80
546;DHT22;259;53.304;9.816;2022-12-07T02:43:57;12.00;68.90
546;DHT22;259;53.304;9.816;2022-12-07T02:46:31;11.90;68.60
546;DHT22;259;53.304;9.816;2022-12-07T02:48:58;11.90;68.80
546;DHT22;259;53.304;9.816;2022-12-07T02:51:25;11.90;68.70
546;DHT22;259;53.304;9.816;2022-12-07T02:53:51;11.90;68.70
546;DHT22;259;53.304;9.816;2022-12-07T02:59:11;11.90;68.80
546;DHT22;259;53.304;9.816;2022-12-07T03:13:04;11.80;68.90
546;DHT22;259;53.304;9.816;2022-12-07T03:15:57;11.80;68.90
546;DHT22;259;53.304;9.816;2022-12-07T03:18:27;11.80;68.90
546;DHT22;259;53.304;9.816;2022-12-07T03:20:57;11.80;68.80
546;DHT22;259;53.304;9.816;2022-12-07T03:23:25;11.80;69.10
546;DHT22;259;53.304;9.816;2022-12-07T03:25:55;11.80;69.10
546;DHT22;259;53.304;9.816;2022-12-07T03:28:24;11.80;69.10
546;DHT22;259;53.304;9.816;2022-12-07T03:31:00;11.80;69.00
546;DHT22;259;53.304;9.816;2022-12-07T03:33:36;11.80;69.20
546;DHT22;259;53.304;9.816;2022-12-07T03:36:14;11.70;69.10
546;DHT22;259;53.304;9.816;2022-12-07T03:38:53;11.70;69.10
546;DHT22;259;53.304;9.816;2022-12-07T03:41:25;11.70;69.30
546;DHT22;259;53.304;9.816;2022-12-07T03:43:54;11.70;69.10
546;DHT22;259;53.304;9.816;2022-12-07T03:52:15;11.70;69.10
546;DHT22;259;53.304;9.816;2022-12-07T03:54:49;11.70;69.20
546;DHT22;259;53.304;9.816;2022-12-07T03:57:17;11.70;69.20
546;DHT22;259;53.304;9.816;2022-12-07T03:59:44;11.70;69.10
546;DHT22;259;53.304;9.816;2022-12-07T04:02:12;11.70;69.00
546;DHT22;259;53.304;9.816;2022-12-07T04:04:39;11.60;69.00
546;DHT22;259;53.304;9.816;2022-12-07T04:07:05;11.60;69.00
546;DHT22;259;53.304;9.816;2022-12-07T04:09:30;11.60;68.70
546;DHT22;259;53.304;9.816;2022-12-07T04:11:56;11.60;69.00
546;DHT22;259;53.304;9.816;2022-12-07T04:14:21;11.60;69.10
546;DHT22;259;53.304;9.816;2022-12-07T04:16:58;11.60;69.20
546;DHT22;259;53.304;9.816;2022-12-07T04:19:28;11.60;69.20
546;DHT22;259;53.304;9.816;2022-12-07T04:21:55;11.60;69.10
546;DHT22;259;53.304;9.816;2022-12-07T04:24:21;11.60;69.30
546;DHT22;259;53.304;9.816;2022-12-07T04:26:47;11.60;69.30
546;DHT22;259;53.304;9.816;2022-12-07T04:29:14;11.50;69.00
546;DHT22;259;53.304;9.816;2022-12-07T04:31:39;11.50;69.10
546;DHT22;259;53.304;9.816;2022-12-07T04:34:06;11.50;69.20
546;DHT22;259;53.304;9.816;2022-12-07T04:36:33;11.50;69.30
546;DHT22;259;53.304;9.816;2022-12-07T04:38:59;11.50;69.30
546;DHT22;259;53.304;9.816;2022-12-07T04:41:25;11.50;69.30
546;DHT22;259;53.304;9.816;2022-12-07T04:43:59;11.50;69.40
546;DHT22;259;53.304;9.816;2022-12-07T04:46:25;11.50;69.40
546;DHT22;259;53.304;9.816;2022-12-07T04:48:52;11.40;69.30
546;DHT22;259;53.304;9.816;2022-12-07T04:51:24;11.40;70.10
546;DHT22;259;53.304;9.816;2022-12-07T04:53:50;11.40;69.30
546;DHT22;259;53.304;9.816;2022-12-07T04:56:16;11.40;69.50
546;DHT22;259;53.304;9.816;2022-12-07T04:58:43;11.40;69.50
546;DHT22;259;53.304;9.816;2022-12-07T05:01:09;11.40;69.40
546;DHT22;259;53.304;9.816;2022-12-07T05:03:36;11.40;69.30
546;DHT22;259;53.304;9.816;2022-12-07T05:06:02;11.40;69.30
546;DHT22;259;53.304;9.816;2022-12-07T05:08:27;11.40;69.30
546;DHT22;259;53.304;9.816;2022-12-07T05:10:53;11.30;69.30
546;DHT22;259;53.304;9.816;2022-12-07T05:13:18;11.30;69.10
546;DHT22;259;53.304;9.816;2022-12-07T05:15:44;11.30;69.20
546;DHT22;259;53.304;9.816;2022-12-07T05:18:10;11.30;69.30
546;DHT22;259;53.304;9.816;2022-12-07T05:20:38;11.30;69.50
546;DHT22;259;53.304;9.816;2022-12-07T05:23:04;11.30;69.60
546;DHT22;259;53.304;9.816;2022-12-07T05:25:29;11.30;69.60
546;DHT22;259;53.304;9.816;2022-12-07T05:27:55;11.30;69.20
546;DHT22;259;53.304;9.816;2022-12-07T05:30:22;11.30;69.50
546;DHT22;259;53.304;9.816;2022-12-07T05:32:47;11.30;69.60
546;DHT22;259;53.304;9.816;2022-12-07T05:35:13;11.20;69.30
546;DHT22;259;53.304;9.816;2022-12-07T05:37:39;11.20;69.60
546;DHT22;259;53.304;9.816;2022-12-07T05:40:05;11.20;69.50
546;DHT22;259;53.304;9.816;2022-12-07T05:42:31;11.20;69.20
546;DHT22;259;53.304;9.816;2022-12-07T05:44:57;11.20;69.70
546;DHT22;259;53.304;9.816;2022-12-07T05:47:22;11.20;69.60
546;DHT22;259;53.304;9.816;2022-12-07T05:49:48;11.20;69.70
546;DHT22;259;53.304;9.816;2022-12-07T05:52:13;11.20;69.50
546;DHT22;259;53.304;9.816;2022-12-07T05:54:39;11.10;69.50
546;DHT22;259;53.304;9.816;2022-12-07T05:57:05;11.10;69.60
546;DHT22;259;53.304;9.816;2022-12-07T05:59:30;11.10;69.30
546;DHT22;259;53.304;9.816;2022-12-07T06:01:58;11.10;69.30
546;DHT22;259;53.304;9.816;2022-12-07T06:04:26;11.10;69.20
546;DHT22;259;53.304;9.816;2022-12-07T06:06:52;11.10;69.50
546;DHT22;259;53.304;9.816;2022-12-07T06:09:19;11.10;69.50
546;DHT22;259;53.304;9.816;2022-12-07T06:11:45;11.10;69.70
546;DHT22;259;53.304;9.816;2022-12-07T06:14:29;11.10;69.80
546;DHT22;259;53.304;9.816;2022-12-07T06:16:54;11.10;69.80
546;DHT22;259;53.304;9.816;2022-12-07T06:19:20;11.10;69.70
546;DHT22;259;53.304;9.816;2022-12-07T06:21:46;11.00;69.60
546;DHT22;259;53.304;9.816;2022-12-07T06:24:12;11.00;69.50
546;DHT22;259;53.304;9.816;2022-12-07T06:26:38;11.00;69.60
546;DHT22;259;53.304;9.816;2022-12-07T06:29:04;11.00;69.60
546;DHT22;259;53.304;9.816;2022-12-07T06:31:30;11.00;69.60
546;DHT22;259;53.304;9.816;2022-12-07T06:34:09;11.00;69.70
546;DHT22;259;53.304;9.816;2022-12-07T06:36:35;11.00;69.80
546;DHT22;259;53.304;9.816;2022-12-07T06:39:01;11.00;69.60
546;DHT22;259;53.304;9.816;2022-12-07T06:41:26;10.90;69.20
546;DHT22;259;53.304;9.816;2022-12-07T06:43:52;11.00;69.50
546;DHT22;259;53.304;9.816;2022-12-07T06:46:18;10.90;69.50
546;DHT22;259;53.304;9.816;2022-12-07T06:48:43;11.00;69.80
546;DHT22;259;53.304;9.816;2022-12-07T06:51:09;10.90;69.60
546;DHT22;259;53.304;9.816;2022-12-07T06:53:35;10.90;69.60
546;DHT22;259;53.304;9.816;2022-12-07T06:56:02;10.90;69.60
546;DHT22;259;53.304;9.816;2022-12-07T06:58:27;10.90;69.80
546;DHT22;259;53.304;9.816;2022-12-07T07:00:53;10.90;69.70
546;DHT22;259;53.304;9.816;2022-12-07T07:03:19;10.90;69.70
546;DHT22;259;53.304;9.816;2022-12-07T07:05:44;10.90;69.80
546;DHT22;259;53.304;9.816;2022-12-07T07:08:11;10.90;69.80
546;DHT22;259;53.304;9.816;2022-12-07T07:10:37;10.80;69.60
546;DHT22;259;53.304;9.816;2022-12-07T07:13:03;10.80;69.80
546;DHT22;259;53.304;9.816;2022-12-07T07:15:29;10.80;69.60
546;DHT22;259;53.304;9.816;2022-12-07T07:17:54;10.80;69.40
546;DHT22;259;53.304;9.816;2022-12-07T07:20:20;10.80;70.30
546;DHT22;259;53.304;9.816;2022-12-07T07:22:46;10.80;69.40
546;DHT22;259;53.304;9.816;2022-12-07T07:25:11;10.80;69.70
546;DHT22;259;53.304;9.816;2022-12-07T07:27:37;10.80;69.60
546;DHT22;259;53.304;9.816;2022-12-07T07:30:03;10.80;69.60
546;DHT22;259;53.304;9.816;2022-12-07T07:32:29;10.80;69.60
546;DHT22;259;53.304;9.816;2022-12-07T07:34:55;10.80;69.80
546;DHT22;259;53.304;9.816;2022-12-07T07:37:20;10.70;69.70
546;DHT22;259;53.304;9.816;2022-12-07T07:39:46;10.70;69.40
546;DHT22;259;53.304;9.816;2022-12-07T07:42:11;10.70;69.60
546;DHT22;259;53.304;9.816;2022-12-07T07:44:37;10.70;69.50
546;DHT22;259;53.304;9.816;2022-12-07T07:47:03;10.70;69.40
546;DHT22;259;53.304;9.816;2022-12-07T07:49:28;10.70;70.30
546;DHT22;259;53.304;9.816;2022-12-07T07:51:54;10.70;69.50
546;DHT22;259;53.304;9.816;2022-12-07T07:54:19;10.70;69.80
546;DHT22;259;53.304;9.816;2022-12-07T07:56:45;10.70;69.50
546;DHT22;259;53.304;9.816;2022-12-07T07:59:10;10.70;69.40
546;DHT22;259;53.304;9.816;2022-12-07T08:01:36;10.70;69.40
546;DHT22;259;53.304;9.816;2022-12-07T08:04:02;10.60;69.40
546;DHT22;259;53.304;9.816;2022-12-07T08:06:27;10.60;69.10
546;DHT22;259;53.304;9.816;2022-12-07T08:08:53;10.60;69.10
546;DHT22;259;53.304;9.816;2022-12-07T08:11:19;10.60;69.00
546;DHT22;259;53.304;9.816;2022-12-07T08:13:46;10.60;69.30
546;DHT22;259;53.304;9.816;2022-12-07T08:16:14;10.60;69.00
546;DHT22;259;53.304;9.816;2022-12-07T08:18:41;10.60;69.10
546;DHT22;259;53.304;9.816;2022-12-07T08:21:13;10.60;69.10
546;DHT22;259;53.304;9.816;2022-12-07T08:23:38;10.60;69.10
546;DHT22;259;53.304;9.816;2022-12-07T08:26:07;10.60;69.00
546;DHT22;259;53.304;9.816;2022-12-07T08:28:33;10.60;69.00
546;DHT22;259;53.304;9.816;2022-12-07T08:31:02;10.60;69.10
546;DHT22;259;53.304;9.816;2022-12-07T08:33:28;10.60;69.30
546;DHT22;259;53.304;9.816;2022-12-07T08:35:54;10.50;68.90
546;DHT22;259;53.304;9.816;2022-12-07T08:38:20;10.50;68.70
546;DHT22;259;53.304;9.816;2022-12-07T08:40:54;10.50;69.00
546;DHT22;259;53.304;9.816;2022-12-07T08:43:19;10.50;68.80
546;DHT22;259;53.304;9.816;2022-12-07T08:45:46;10.50;69.00
546;DHT22;259;53.304;9.816;2022-12-07T08:48:13;10.50;68.90
546;DHT22;259;53.304;9.816;2022-12-07T08:50:39;10.50;69.10
546;DHT22;259;53.304;9.816;2022-12-07T08:53:06;10.50;69.00
546;DHT22;259;53.304;9.816;2022-12-07T08:55:33;10.50;69.00
546;DHT22;259;53.304;9.816;2022-12-07T08:58:00;10.50;69.10
546;DHT22;259;53.304;9.816;2022-12-07T09:00:26;10.50;69.30
546;DHT22;259;53.304;9.816;2022-12-07T09:02:52;10.50;69.30
546;DHT22;259;53.304;9.816;2022-12-07T09:05:18;10.50;70.20
546;DHT22;259;53.304;9.816;2022-12-07T09:07:46;10.40;71.00
546;DHT22;259;53.304;9.816;2022-12-07T09:10:14;10.50;71.20
546;DHT22;259;53.304;9.816;2022-12-07T09:12:40;10.50;71.60
546;DHT22;259;53.304;9.816;2022-12-07T09:15:06;10.50;72.20
546;DHT22;259;53.304;9.816;2022-12-07T09:17:34;10.50;72.70
546;DHT22;259;53.304;9.816;2022-12-07T09:20:00;10.50;72.50
546;DHT22;259;53.304;9.816;2022-12-07T09:22:29;10.50;71.70
546;DHT22;259;53.304;9.816;2022-12-07T09:24:56;10.50;71.60
546;DHT22;259;53.304;9.816;2022-12-07T09:27:21;10.50;70.90
546;DHT22;259;53.304;9.816;2022-12-07T09:29:47;10.50;72.10
546;DHT22;259;53.304;9.816;2022-12-07T09:32:12;10.50;72.90
546;DHT22;259;53.304;9.816;2022-12-07T09:34:38;10.50;72.80
546;DHT22;259;53.304;9.816;2022-12-07T09:37:04;10.40;73.80
546;DHT22;259;53.304;9.816;2022-12-07T09:39:29;10.40;73.90
546;DHT22;259;53.304;9.816;2022-12-07T09:41:57;10.40;73.70
546;DHT22;259;53.304;9.816;2022-12-07T09:44:25;10.40;73.40
546;DHT22;259;53.304;9.816;2022-12-07T09:46:51;10.40;73.30
546;DHT22;259;53.304;9.816;2022-12-07T09:49:20;10.40;73.60
546;DHT22;259;53.304;9.816;2022-12-07T09:51:46;10.40;73.40
546;DHT22;259;53.304;9.816;2022-12-07T09:54:16;10.30;73.20
546;DHT22;259;53.304;9.816;2022-12-07T09:56:43;10.30;73.20
546;DHT22;259;53.304;9.816;2022-12-07T09:59:17;10.30;72.90
546;DHT22;259;53.304;9.816;2022-12-07T10:01:44;10.30;73.00
546;DHT22;259;53.304;9.816;2022-12-07T10:04:15;10.30;73.20
546;DHT22;259;53.304;9.816;2022-12-07T10:06:42;10.30;73.10
546;DHT22;259;53.304;9.816;2022-12-07T10:09:13;10.20;73.00
546;DHT22;259;53.304;9.816;2022-12-07T10:12:01;10.30;73.10
546;DHT22;259;53.304;9.816;2022-12-07T10:14:28;10.20;72.80
546;DHT22;259;53.304;9.816;2022-12-07T10:16:55;10.20;72.80
546;DHT22;259;53.304;9.816;2022-12-07T10:19:25;10.20;72.80
546;DHT22;259;53.304;9.816;2022-12-07T10:22:10;10.20;72.90
546;DHT22;259;53.304;9.816;2022-12-07T10:24:38;10.20;72.80
546;DHT22;259;53.304;9.816;2022-12-07T10:27:26;10.20;72.80
546;DHT22;259;53.304;9.816;2022-12-07T10:29:54;10.20;72.80
546;DHT22;259;53.304;9.816;2022-12-07T10:34:45;10.20;72.80
546;DHT22;259;53.304;9.816;2022-12-07T10:39:52;10.20;72.60
546;DHT22;259;53.304;9.816;2022-12-07T10:44:43;10.10;72.40
546;DHT22;259;53.304;9.816;2022-12-07T11:01:54;10.10;72.50
546;DHT22;259;53.304;9.816;2022-12-07T11:04:39;10.10;72.60
546;DHT22;259;53.304;9.816;2022-12-07T11:10:08;10.10;72.70
546;DHT22;259;53.304;9.816;2022-12-07T11:18:31;10.00;72.90
546;DHT22;259;53.304;9.816;2022-12-07T11:26:21;10.00;72.90
546;DHT22;259;53.304;9.816;2022-12-07T11:37:02;10.00;72.90
546;DHT22;259;53.304;9.816;2022-12-07T11:39:32;10.00;73.30
546;DHT22;259;53.304;9.816;2022-12-07T11:42:26;9.90;74.10
546;DHT22;259;53.304;9.816;2022-12-07T11:44:57;9.90;74.00
546;DHT22;259;53.304;9.816;2022-12-07T11:47:36;9.90;74.00
546;DHT22;259;53.304;9.816;2022-12-07T11:53:14;9.90;74.00
546;DHT22;259;53.304;9.816;2022-12-07T11:55:56;9.90;74.10
546;DHT22;259;53.304;9.816;2022-12-07T11:58:39;9.90;74.10
546;DHT22;259;53.304;9.816;2022-12-07T12:03:52;9.90;74.20
546;DHT22;259;53.304;9.816;2022-12-07T12:06:20;9.90;74.20
546;DHT22;259;53.304;9.816;2022-12-07T12:08:46;9.80;74.10
546;DHT22;259;53.304;9.816;2022-12-07T12:14:36;9.80;74.10
546;DHT22;259;53.304;9.816;2022-12-07T12:20:01;9.80;74.40
546;DHT22;259;53.304;9.816;2022-12-07T12:22:39;9.80;74.30
546;DHT22;259;53.304;9.816;2022-12-07T12:25:19;9.80;74.40
546;DHT22;259;53.304;9.816;2022-12-07T12:27:47;9.80;74.40
546;DHT22;259;53.304;9.816;2022-12-07T12:33:22;9.80;74.50
546;DHT22;259;53.304;9.816;2022-12-07T12:36:53;9.80;74.60
546;DHT22;259;53.304;9.816;2022-12-07T12:44:01;9.80;74.70
546;DHT22;259;53.304;9.816;2022-12-07T12:59:38;9.70;74.90
546;DHT22;259;53.304;9.816;2022-12-07T13:02:20;9.70;74.80
546;DHT22;259;53.304;9.816;2022-12-07T13:04:55;9.70;75.00
546;DHT22;259;53.304;9.816;2022-12-07T13:18:34;9.70;75.20
546;DHT22;259;53.304;9.816;2022-12-07T13:23:56;9.70;75.30
546;DHT22;259;53.304;9.816;2022-12-07T13:26:36;9.70;75.30
546;DHT22;259;53.304;9.816;2022-12-07T13:29:16;9.70;75.30
546;DHT22;259;53.304;9.816;2022-12-07T13:34:32;9.60;75.20
546;DHT22;259;53.304;9.816;2022-12-07T13:37:01;9.60;75.20
546;DHT22;259;53.304;9.816;2022-12-07T13:39:28;9.60;75.30
546;DHT22;259;53.304;9.816;2022-12-07T13:41:56;9.60;75.20
546;DHT22;259;53.304;9.816;2022-12-07T13:44:23;9.60;75.10
546;DHT22;259;53.304;9.816;2022-12-07T13:49:49;9.60;75.10
546;DHT22;259;53.304;9.816;2022-12-07T13:52:16;9.60;75.20
546;DHT22;259;53.304;9.816;2022-12-07T13:54:55;9.60;75.20
546;DHT22;259;53.304;9.816;2022-12-07T13:57:22;9.60;75.20
546;DHT22;259;53.304;9.816;2022-12-07T13:59:49;9.60;75.30
546;DHT22;259;53.304;9.816;2022-12-07T14:02:25;9.60;75.40
546;DHT22;259;53.304;9.816;2022-12-07T14:04:51;9.60;75.30
546;DHT22;259;53.304;9.816;2022-12-07T14:07:25;9.60;75.30
546;DHT22;259;53.304;9.816;2022-12-07T14:09:59;9.60;75.40
546;DHT22;259;53.304;9.816;2022-12-07T14:12:26;9.60;75.40
546;DHT22;259;53.304;9.816;2022-12-07T14:14:52;9.50;75.40
546;DHT22;259;53.304;9.816;2022-12-07T14:17:21;9.60;75.50
546;DHT22;259;53.304;9.816;2022-12-07T14:19:54;9.50;75.40
546;DHT22;259;53.304;9.816;2022-12-07T14:22:32;9.50;75.40
546;DHT22;259;53.304;9.816;2022-12-07T14:25:21;9.50;75.50
546;DHT22;259;53.304;9.816;2022-12-07T14:28:09;9.50;75.60
546;DHT22;259;53.304;9.816;2022-12-07T14:30:35;9.50;75.50
546;DHT22;259;53.304;9.816;2022-12-07T14:33:03;9.50;75.60
546;DHT22;259;53.304;9.816;2022-12-07T14:35:30;9.50;75.60
546;DHT22;259;53.304;9.816;2022-12-07T14:37:56;9.50;75.60
546;DHT22;259;53.304;9.816;2022-12-07T14:40:24;9.50;75.60
546;DHT22;259;53.304;9.816;2022-12-07T14:43:01;9.50;75.70
546;DHT22;259;53.304;9.816;2022-12-07T14:45:27;9.50;75.60
546;DHT22;259;53.304;9.816;2022-12-07T14:47:52;9.50;75.60
546;DHT22;259;53.304;9.816;2022-12-07T14:50:19;9.50;75.70
546;DHT22;259;53.304;9.816;2022-12-07T14:52:52;9.50;75.60
546;DHT22;259;53.304;9.816;2022-12-07T14:55:27;9.40;75.60
546;DHT22;259;53.304;9.816;2022-12-07T14:57:53;9.40;75.70
546;DHT22;259;53.304;9.816;2022-12-07T15:00:21;9.40;75.70
546;DHT22;259;53.304;9.816;2022-12-07T15:02:48;9.40;75.80
546;DHT22;259;53.304;9.816;2022-12-07T15:05:15;9.40;75.80
546;DHT22;259;53.304;9.816;2022-12-07T15:07:40;9.40;75.80
546;DHT22;259;53.304;9.816;2022-12-07T15:12:41;9.40;75.70
546;DHT22;259;53.304;9.816;2022-12-07T15:15:07;9.40;75.70
546;DHT22;259;53.304;9.816;2022-12-07T15:17:33;9.40;75.70
546;DHT22;259;53.304;9.816;2022-12-07T15:19:59;9.40;75.70
546;DHT22;259;53.304;9.816;2022-12-07T15:22:24;9.30;75.70
546;DHT22;259;53.304;9.816;2022-12-07T15:24:50;9.40;75.90
546;DHT22;259;53.304;9.816;2022-12-07T15:27:15;9.40;75.90
546;DHT22;259;53.304;9.816;2022-12-07T15:29:41;9.40;75.90
546;DHT22;259;53.304;9.816;2022-12-07T15:32:06;9.40;76.00
546;DHT22;259;53.304;9.816;2022-12-07T15:34:32;9.40;75.80
546;DHT22;259;53.304;9.816;2022-12-07T15:36:57;9.30;75.80
546;DHT22;259;53.304;9.816;2022-12-07T15:39:23;9.30;75.80
546;DHT22;259;53.304;9.816;2022-12-07T15:41:49;9.30;76.00
546;DHT22;259;53.304;9.816;2022-12-07T15:44:14;9.30;75.80
546;DHT22;259;53.304;9.816;2022-12-07T15:46:59;9.30;76.00
546;DHT22;259;53.304;9.816;2022-12-07T15:49:25;9.30;76.00
546;DHT22;259;53.304;9.816;2022-12-07T15:51:51;9.30;76.00
546;DHT22;259;53.304;9.816;2022-12-07T15:54:25;9.30;75.90
546;DHT22;259;53.304;9.816;2022-12-07T15:56:51;9.30;75.90
546;DHT22;259;53.304;9.816;2022-12-07T15:59:17;9.30;75.80
546;DHT22;259;53.304;9.816;2022-12-07T16:01:43;9.30;75.80
546;DHT22;259;53.304;9.816;2022-12-07T16:04:08;9.20;75.60
546;DHT22;259;53.304;9.816;2022-12-07T16:06:34;9.30;75.80
546;DHT22;259;53.304;9.816;2022-12-07T16:09:00;9.30;75.80
546;DHT22;259;53.304;9.816;2022-12-07T16:11:25;9.30;75.70
546;DHT22;259;53.304;9.816;2022-12-07T16:13:51;9.30;75.80
546;DHT22;259;53.304;9.816;2022-12-07T16:16:18;9.20;75.60
546;DHT22;259;53.304;9.816;2022-12-07T16:18:45;9.20;75.50
546;DHT22;259;53.304;9.816;2022-12-07T16:21:12;9.20;75.70
546;DHT22;259;53.304;9.816;2022-12-07T16:23:37;9.20;75.70
546;DHT22;259;53.304;9.816;2022-12-07T16:26:05;9.20;75.90
546;DHT22;259;53.304;9.816;2022-12-07T16:28:31;9.20;75.60
546;DHT22;259;53.304;9.816;2022-12-07T16:31:02;9.20;75.60
546;DHT22;259;53.304;9.816;2022-12-07T16:33:27;9.20;75.70
546;DHT22;259;53.304;9.816;2022-12-07T16:35:53;9.20;75.80
546;DHT22;259;53.304;9.816;2022-12-07T16:38:18;9.20;75.70
546;DHT22;259;53.304;9.816;2022-12-07T16:40:44;9.20;75.80
546;DHT22;259;53.304;9.816;2022-12-07T16:43:11;9.20;75.80
546;DHT22;259;53.304;9.816;2022-12-07T16:45:38;9.20;75.50
546;DHT22;259;53.304;9.816;2022-12-07T16:48:04;9.20;75.70
546;DHT22;259;53.304;9.816;2022-12-07T16:50:29;9.20;75.70
546;DHT22;259;53.304;9.816;2022-12-07T16:52:55;9.20;75.80
546;DHT22;259;53.304;9.816;2022-12-07T16:55:20;9.10;75.60
546;DHT22;259;53.304;9.816;2022-12-07T16:57:46;9.10;75.50
546;DHT22;259;53.304;9.816;2022-12-07T17:00:12;9.10;75.60
546;DHT22;259;53.304;9.816;2022-12-07T17:02:37;9.10;75.60
546;DHT22;259;53.304;9.816;2022-12-07T17:05:03;9.10;75.70
546;DHT22;259;53.304;9.816;2022-12-07T17:07:29;9.10;75.60
546;DHT22;259;53.304;9.816;2022-12-07T17:09:54;9.10;75.70
546;DHT22;259;53.304;9.816;2022-12-07T17:12:20;9.10;75.80
546;DHT22;259;53.304;9.816;2022-12-07T17:14:45;9.10;75.80
546;DHT22;259;53.304;9.816;2022-12-07T17:17:30;9.10;75.60
546;DHT22;259;53.304;9.816;2022-12-07T17:19:55;9.10;75.60
546;DHT22;259;53.304;9.816;2022-12-07T17:22:21;9.10;75.80
546;DHT22;259;53.304;9.816;2022-12-07T17:24:46;9.10;75.70
546;DHT22;259;53.304;9.816;2022-12-07T17:27:12;9.10;75.50
546;DHT22;259;53.304;9.816;2022-12-07T17:29:37;9.10;75.70
546;DHT22;259;53.304;9.816;2022-12-07T17:32:03;9.00;75.50
546;DHT22;259;53.304;9.816;2022-12-07T17:34:29;9.10;75.80
546;DHT22;259;53.304;9.816;2022-12-07T17:36:54;9.00;75.30
546;DHT22;259;53.304;9.816;2022-12-07T17:39:20;9.00;75.40
546;DHT22;259;53.304;9.816;2022-12-07T17:41:46;9.00;75.60
546;DHT22;259;53.304;9.816;2022-12-07T17:44:30;9.00;75.40
546;DHT22;259;53.304;9.816;2022-12-07T17:46:56;9.00;75.40
546;DHT22;259;53.304;9.816;2022-12-07T17:49:27;9.00;75.40
546;DHT22;259;53.304;9.816;2022-12-07T17:51:53;9.00;75.70
546;DHT22;259;53.304;9.816;2022-12-07T17:54:37;9.00;76.20
546;DHT22;259;53.304;9.816;2022-12-07T17:57:03;9.10;77.30
546;DHT22;259;53.304;9.816;2022-12-07T17:59:28;9.10;77.60
546;DHT22;259;53.304;9.816;2022-12-07T18:01:54;9.20;77.60
546;DHT22;259;53.304;9.816;2022-12-07T18:04:20;9.20;77.40
546;DHT22;259;53.304;9.816;2022-12-07T18:06:45;9.20;77.00
546;DHT22;259;53.304;9.816;2022-12-07T18:09:11;9.20;76.60
546;DHT22;259;53.304;9.816;2022-12-07T18:11:37;9.20;76.60
546;DHT22;259;53.304;9.816;2022-12-07T18:14:05;9.10;76.50
546;DHT22;259;53.304;9.816;2022-12-07T18:16:32;9.10;76.50
546;DHT22;259;53.304;9.816;2022-12-07T18:19:00;9.10;76.60
546;DHT22;259;53.304;9.816;2022-12-07T18:21:28;9.00;76.60
546;DHT22;259;53.304;9.816;2022-12-07T18:23:56;9.00;76.70
546;DHT22;259;53.304;9.816;2022-12-07T18:26:24;9.00;76.70
546;DHT22;259;53.304;9.816;2022-12-07T18:28:50;9.00;76.80
546;DHT22;259;53.304;9.816;2022-12-07T18:31:16;9.00;76.70
546;DHT22;259;53.304;9.816;2022-12-07T18:33:43;9.00;76.70
546;DHT22;259;53.304;9.816;2022-12-07T18:36:11;9.00;76.70
546;DHT22;259;53.304;9.816;2022-12-07T18:38:37;8.90;76.60
546;DHT22;259;53.304;9.816;2022-12-07T18:41:05;8.90;76.70
546;DHT22;259;53.304;9.816;2022-12-07T18:43:31;8.90;76.70
546;DHT22;259;53.304;9.816;2022-12-07T18:45:56;8.90;76.70
546;DHT22;259;53.304;9.816;2022-12-07T18:48:22;8.90;76.70
546;DHT22;259;53.304;9.816;2022-12-07T18:51:02;8.90;76.60
546;DHT22;259;53.304;9.816;2022-12-07T18:53:28;8.90;76.60
546;DHT22;259;53.304;9.816;2022-12-07T18:56:05;8.90;76.50
546;DHT22;259;53.304;9.816;2022-12-07T18:58:31;8.90;76.70